sensor_id;sensor_type;location;lat;lon;timestamp;P1;durP1;ratioP1;P2;durP2;ratioP2
63203;SDS011;49297;43.210;27.914;2023-08-24T00:02:11;13.13;;;10.05;;
63203;SDS011;49297;43.210;27.914;2023-08-24T00:04:37;11.65;;;10.60;;
63203;SDS011;49297;43.210;27.914;2023-08-24T00:07:03;14.88;;;11.95;;
63203;SDS011;49297;43.210;27.914;2023-08-24T00:09:29;13.80;;;12.37;;
63203;SDS011;49297;43.210;27.914;2023-08-24T00:11:55;12.32;;;11.07;;
63203;SDS011;49297;43.210;27.914;2023-08-24T00:14:20;12.20;;;11.00;;
63203;SDS011;49297;43.210;27.914;2023-08-24T00:16:46;15.38;;;11.45;;
63203;SDS011;49297;43.210;27.914;2023-08-24T00:19:13;11.52;;;10.40;;
63203;SDS011;49297;43.210;27.914;2023-08-24T00:21:38;11.75;;;10.75;;
63203;SDS011;49297;43.210;27.914;2023-08-24T00:24:04;11.23;;;10.20;;
63203;SDS011;49297;43.210;27.914;2023-08-24T00:26:30;11.05;;;9.55;;
63203;SDS011;49297;43.210;27.914;2023-08-24T00:28:56;10.23;;;9.33;;
63203;SDS011;49297;43.210;27.914;2023-08-24T00:31:22;10.48;;;9.38;;
63203;SDS011;49297;43.210;27.914;2023-08-24T00:33:48;11.23;;;10.18;;
63203;SDS011;49297;43.210;27.914;2023-08-24T00:36:15;11.88;;;10.95;;
63203;SDS011;49297;43.210;27.914;2023-08-24T00:38:43;13.45;;;12.10;;
63203;SDS011;49297;43.210;27.914;2023-08-24T00:41:09;17.23;;;14.20;;
63203;SDS011;49297;43.210;27.914;2023-08-24T00:43:35;17.00;;;14.55;;
63203;SDS011;49297;43.210;27.914;2023-08-24T00:46:01;15.95;;;14.65;;
63203;SDS011;49297;43.210;27.914;2023-08-24T00:48:29;15.80;;;14.43;;
63203;SDS011;49297;43.210;27.914;2023-08-24T00:50:57;16.90;;;15.20;;
63203;SDS011;49297;43.210;27.914;2023-08-24T00:53:25;16.63;;;15.13;;
63203;SDS011;49297;43.210;27.914;2023-08-24T00:55:53;15.43;;;13.93;;
63203;SDS011;49297;43.210;27.914;2023-08-24T00:58:20;14.23;;;12.10;;
63203;SDS011;49297;43.210;27.914;2023-08-24T01:00:46;12.45;;;11.35;;
63203;SDS011;49297;43.210;27.914;2023-08-24T01:03:13;11.93;;;10.93;;
63203;SDS011;49297;43.210;27.914;2023-08-24T01:05:41;14.13;;;12.07;;
63203;SDS011;49297;43.210;27.914;2023-08-24T01:08:08;12.75;;;11.43;;
63203;SDS011;49297;43.210;27.914;2023-08-24T01:13:32;12.57;;;11.45;;
63203;SDS011;49297;43.210;27.914;2023-08-24T01:16:13;14.85;;;13.43;;
63203;SDS011;49297;43.210;27.914;2023-08-24T01:18:45;16.80;;;14.48;;
63203;SDS011;49297;43.210;27.914;2023-08-24T01:21:14;15.30;;;13.90;;
63203;SDS011;49297;43.210;27.914;2023-08-24T01:23:54;13.98;;;12.65;;
63203;SDS011;49297;43.210;27.914;2023-08-24T01:26:30;18.63;;;13.10;;
63203;SDS011;49297;43.210;27.914;2023-08-24T01:28:56;18.17;;;14.70;;
63203;SDS011;49297;43.210;27.914;2023-08-24T01:31:23;17.15;;;13.32;;
63203;SDS011;49297;43.210;27.914;2023-08-24T01:33:50;15.17;;;13.73;;
63203;SDS011;49297;43.210;27.914;2023-08-24T01:36:17;19.45;;;14.13;;
63203;SDS011;49297;43.210;27.914;2023-08-24T01:38:43;16.02;;;14.38;;
63203;SDS011;49297;43.210;27.914;2023-08-24T01:41:18;17.20;;;14.03;;
63203;SDS011;49297;43.210;27.914;2023-08-24T01:43:52;18.50;;;15.20;;
63203;SDS011;49297;43.210;27.914;2023-08-24T01:46:21;20.37;;;15.30;;
63203;SDS011;49297;43.210;27.914;2023-08-24T01:48:51;17.40;;;14.73;;
63203;SDS011;49297;43.210;27.914;2023-08-24T01:51:18;23.60;;;15.23;;
63203;SDS011;49297;43.210;27.914;2023-08-24T01:53:44;15.97;;;14.53;;
63203;SDS011;49297;43.210;27.914;2023-08-24T01:56:11;16.42;;;14.60;;
63203;SDS011;49297;43.210;27.914;2023-08-24T01:58:40;16.13;;;14.52;;
63203;SDS011;49297;43.210;27.914;2023-08-24T02:01:06;21.40;;;15.43;;
63203;SDS011;49297;43.210;27.914;2023-08-24T02:03:33;16.27;;;14.60;;
63203;SDS011;49297;43.210;27.914;2023-08-24T02:06:02;17.70;;;14.55;;
63203;SDS011;49297;43.210;27.914;2023-08-24T02:08:30;16.27;;;14.23;;
63203;SDS011;49297;43.210;27.914;2023-08-24T02:10:56;14.43;;;12.95;;
63203;SDS011;49297;43.210;27.914;2023-08-24T02:13:21;16.83;;;14.38;;
63203;SDS011;49297;43.210;27.914;2023-08-24T02:15:47;18.83;;;14.30;;
63203;SDS011;49297;43.210;27.914;2023-08-24T02:18:13;17.35;;;13.73;;
63203;SDS011;49297;43.210;27.914;2023-08-24T02:20:38;16.20;;;14.02;;
63203;SDS011;49297;43.210;27.914;2023-08-24T02:23:04;21.80;;;14.40;;
63203;SDS011;49297;43.210;27.914;2023-08-24T02:25:30;13.70;;;12.30;;
63203;SDS011;49297;43.210;27.914;2023-08-24T02:27:57;14.65;;;13.10;;
63203;SDS011;49297;43.210;27.914;2023-08-24T02:30:23;17.52;;;11.82;;
63203;SDS011;49297;43.210;27.914;2023-08-24T02:32:49;15.00;;;13.10;;
63203;SDS011;49297;43.210;27.914;2023-08-24T02:35:15;14.98;;;13.18;;
63203;SDS011;49297;43.210;27.914;2023-08-24T02:37:40;14.75;;;13.27;;
63203;SDS011;49297;43.210;27.914;2023-08-24T02:40:06;16.02;;;13.82;;
63203;SDS011;49297;43.210;27.914;2023-08-24T02:42:34;11.57;;;10.57;;
63203;SDS011;49297;43.210;27.914;2023-08-24T02:45:00;16.90;;;10.70;;
63203;SDS011;49297;43.210;27.914;2023-08-24T02:47:26;11.68;;;10.50;;
63203;SDS011;49297;43.210;27.914;2023-08-24T02:49:52;11.13;;;10.03;;
63203;SDS011;49297;43.210;27.914;2023-08-24T02:52:18;9.77;;;8.98;;
63203;SDS011;49297;43.210;27.914;2023-08-24T02:54:43;10.30;;;9.45;;
63203;SDS011;49297;43.210;27.914;2023-08-24T02:57:09;10.52;;;9.45;;
63203;SDS011;49297;43.210;27.914;2023-08-24T02:59:35;10.17;;;9.23;;
63203;SDS011;49297;43.210;27.914;2023-08-24T03:02:01;10.52;;;9.40;;
63203;SDS011;49297;43.210;27.914;2023-08-24T03:04:26;9.70;;;8.83;;
63203;SDS011;49297;43.210;27.914;2023-08-24T03:06:52;12.95;;;9.25;;
63203;SDS011;49297;43.210;27.914;2023-08-24T03:09:18;9.95;;;9.05;;
63203;SDS011;49297;43.210;27.914;2023-08-24T03:11:44;10.20;;;9.40;;
63203;SDS011;49297;43.210;27.914;2023-08-24T03:14:09;11.80;;;10.60;;
63203;SDS011;49297;43.210;27.914;2023-08-24T03:16:37;14.60;;;12.97;;
63203;SDS011;49297;43.210;27.914;2023-08-24T03:19:04;10.55;;;9.52;;
63203;SDS011;49297;43.210;27.914;2023-08-24T03:21:30;11.07;;;10.07;;
63203;SDS011;49297;43.210;27.914;2023-08-24T03:23:56;10.50;;;9.70;;
63203;SDS011;49297;43.210;27.914;2023-08-24T03:26:23;10.95;;;9.90;;
63203;SDS011;49297;43.210;27.914;2023-08-24T03:28:49;10.90;;;9.88;;
63203;SDS011;49297;43.210;27.914;2023-08-24T03:31:15;10.77;;;9.85;;
63203;SDS011;49297;43.210;27.914;2023-08-24T03:33:41;12.75;;;10.35;;
63203;SDS011;49297;43.210;27.914;2023-08-24T03:36:07;12.87;;;10.43;;
63203;SDS011;49297;43.210;27.914;2023-08-24T03:38:34;11.90;;;10.52;;
63203;SDS011;49297;43.210;27.914;2023-08-24T03:41:02;11.68;;;10.50;;
63203;SDS011;49297;43.210;27.914;2023-08-24T03:43:32;11.65;;;10.63;;
63203;SDS011;49297;43.210;27.914;2023-08-24T03:46:00;11.82;;;10.63;;
63203;SDS011;49297;43.210;27.914;2023-08-24T03:48:27;13.00;;;11.70;;
63203;SDS011;49297;43.210;27.914;2023-08-24T03:50:56;11.85;;;10.65;;
63203;SDS011;49297;43.210;27.914;2023-08-24T03:53:23;16.45;;;13.02;;
63203;SDS011;49297;43.210;27.914;2023-08-24T03:55:50;18.45;;;13.05;;
63203;SDS011;49297;43.210;27.914;2023-08-24T03:58:16;15.13;;;13.50;;
63203;SDS011;49297;43.210;27.914;2023-08-24T04:00:43;16.13;;;13.90;;
63203;SDS011;49297;43.210;27.914;2023-08-24T04:03:09;15.10;;;13.15;;
63203;SDS011;49297;43.210;27.914;2023-08-24T04:05:35;16.85;;;13.77;;
63203;SDS011;49297;43.210;27.914;2023-08-24T04:08:00;17.57;;;13.13;;
63203;SDS011;49297;43.210;27.914;2023-08-24T04:10:29;15.23;;;12.57;;
63203;SDS011;49297;43.210;27.914;2023-08-24T04:12:55;16.08;;;14.27;;
63203;SDS011;49297;43.210;27.914;2023-08-24T04:15:21;14.48;;;13.05;;
63203;SDS011;49297;43.210;27.914;2023-08-24T04:17:48;19.92;;;13.57;;
63203;SDS011;49297;43.210;27.914;2023-08-24T04:20:14;17.30;;;14.00;;
63203;SDS011;49297;43.210;27.914;2023-08-24T04:22:43;15.05;;;12.55;;
63203;SDS011;49297;43.210;27.914;2023-08-24T04:25:09;16.90;;;13.30;;
63203;SDS011;49297;43.210;27.914;2023-08-24T04:27:36;13.55;;;12.15;;
63203;SDS011;49297;43.210;27.914;2023-08-24T04:30:02;14.45;;;13.00;;
63203;SDS011;49297;43.210;27.914;2023-08-24T04:32:28;14.38;;;13.07;;
63203;SDS011;49297;43.210;27.914;2023-08-24T04:34:54;13.97;;;12.47;;
63203;SDS011;49297;43.210;27.914;2023-08-24T04:37:20;14.32;;;13.00;;
63203;SDS011;49297;43.210;27.914;2023-08-24T04:39:46;19.37;;;13.07;;
63203;SDS011;49297;43.210;27.914;2023-08-24T04:42:11;14.75;;;13.43;;
63203;SDS011;49297;43.210;27.914;2023-08-24T04:44:37;14.77;;;12.97;;
63203;SDS011;49297;43.210;27.914;2023-08-24T04:47:04;15.17;;;13.57;;
63203;SDS011;49297;43.210;27.914;2023-08-24T04:49:30;15.43;;;13.93;;
63203;SDS011;49297;43.210;27.914;2023-08-24T04:51:56;15.30;;;13.95;;
63203;SDS011;49297;43.210;27.914;2023-08-24T04:54:21;15.82;;;14.20;;
63203;SDS011;49297;43.210;27.914;2023-08-24T04:56:47;15.18;;;13.75;;
63203;SDS011;49297;43.210;27.914;2023-08-24T04:59:13;14.45;;;12.40;;
63203;SDS011;49297;43.210;27.914;2023-08-24T05:01:39;15.85;;;13.60;;
63203;SDS011;49297;43.210;27.914;2023-08-24T05:04:05;17.13;;;14.23;;
63203;SDS011;49297;43.210;27.914;2023-08-24T05:06:30;14.97;;;13.53;;
63203;SDS011;49297;43.210;27.914;2023-08-24T05:08:56;16.25;;;14.63;;
63203;SDS011;49297;43.210;27.914;2023-08-24T05:11:23;15.48;;;13.38;;
63203;SDS011;49297;43.210;27.914;2023-08-24T05:13:50;14.90;;;13.60;;
63203;SDS011;49297;43.210;27.914;2023-08-24T05:16:16;15.87;;;13.93;;
63203;SDS011;49297;43.210;27.914;2023-08-24T05:18:42;14.88;;;13.38;;
63203;SDS011;49297;43.210;27.914;2023-08-24T05:21:07;15.10;;;13.73;;
63203;SDS011;49297;43.210;27.914;2023-08-24T05:23:33;15.43;;;12.57;;
63203;SDS011;49297;43.210;27.914;2023-08-24T05:26:00;14.40;;;12.90;;
63203;SDS011;49297;43.210;27.914;2023-08-24T05:28:28;14.35;;;12.88;;
63203;SDS011;49297;43.210;27.914;2023-08-24T05:30:55;12.90;;;11.85;;
63203;SDS011;49297;43.210;27.914;2023-08-24T05:33:21;12.85;;;11.60;;
63203;SDS011;49297;43.210;27.914;2023-08-24T05:35:49;12.25;;;11.25;;
63203;SDS011;49297;43.210;27.914;2023-08-24T05:38:15;11.45;;;10.45;;
63203;SDS011;49297;43.210;27.914;2023-08-24T05:40:48;11.25;;;10.35;;
63203;SDS011;49297;43.210;27.914;2023-08-24T05:43:14;13.20;;;12.00;;
63203;SDS011;49297;43.210;27.914;2023-08-24T05:45:40;12.70;;;11.53;;
63203;SDS011;49297;43.210;27.914;2023-08-24T05:48:06;12.50;;;11.50;;
63203;SDS011;49297;43.210;27.914;2023-08-24T05:50:33;11.85;;;10.70;;
63203;SDS011;49297;43.210;27.914;2023-08-24T05:52:59;10.23;;;9.48;;
63203;SDS011;49297;43.210;27.914;2023-08-24T05:55:25;9.77;;;8.98;;
63203;SDS011;49297;43.210;27.914;2023-08-24T05:57:51;9.90;;;9.10;;
63203;SDS011;49297;43.210;27.914;2023-08-24T06:00:16;10.97;;;9.07;;
63203;SDS011;49297;43.210;27.914;2023-08-24T06:02:42;9.55;;;8.60;;
63203;SDS011;49297;43.210;27.914;2023-08-24T06:05:08;8.83;;;7.93;;
63203;SDS011;49297;43.210;27.914;2023-08-24T06:07:34;8.70;;;7.95;;
63203;SDS011;49297;43.210;27.914;2023-08-24T06:10:01;9.57;;;8.77;;
63203;SDS011;49297;43.210;27.914;2023-08-24T06:12:27;8.88;;;8.18;;
63203;SDS011;49297;43.210;27.914;2023-08-24T06:14:55;8.73;;;8.05;;
63203;SDS011;49297;43.210;27.914;2023-08-24T06:17:21;9.20;;;8.50;;
63203;SDS011;49297;43.210;27.914;2023-08-24T06:19:47;10.23;;;8.73;;
63203;SDS011;49297;43.210;27.914;2023-08-24T06:22:13;10.07;;;9.17;;
63203;SDS011;49297;43.210;27.914;2023-08-24T06:24:38;9.87;;;8.97;;
63203;SDS011;49297;43.210;27.914;2023-08-24T06:27:04;11.30;;;10.18;;
63203;SDS011;49297;43.210;27.914;2023-08-24T06:29:30;10.53;;;9.73;;
63203;SDS011;49297;43.210;27.914;2023-08-24T06:31:56;12.05;;;10.95;;
63203;SDS011;49297;43.210;27.914;2023-08-24T06:34:22;9.48;;;8.68;;
63203;SDS011;49297;43.210;27.914;2023-08-24T06:36:50;14.07;;;10.63;;
63203;SDS011;49297;43.210;27.914;2023-08-24T06:39:16;10.63;;;9.73;;
63203;SDS011;49297;43.210;27.914;2023-08-24T06:41:41;9.63;;;8.83;;
63203;SDS011;49297;43.210;27.914;2023-08-24T06:44:07;12.85;;;10.35;;
63203;SDS011;49297;43.210;27.914;2023-08-24T06:46:33;11.43;;;10.52;;
63203;SDS011;49297;43.210;27.914;2023-08-24T06:48:59;11.47;;;10.47;;
63203;SDS011;49297;43.210;27.914;2023-08-24T06:51:25;13.65;;;10.98;;
63203;SDS011;49297;43.210;27.914;2023-08-24T06:53:51;11.95;;;10.95;;
63203;SDS011;49297;43.210;27.914;2023-08-24T06:56:17;12.17;;;10.97;;
63203;SDS011;49297;43.210;27.914;2023-08-24T06:58:47;12.43;;;11.40;;
63203;SDS011;49297;43.210;27.914;2023-08-24T07:01:13;10.80;;;9.90;;
63203;SDS011;49297;43.210;27.914;2023-08-24T07:03:39;11.40;;;10.40;;
63203;SDS011;49297;43.210;27.914;2023-08-24T07:06:05;11.75;;;10.70;;
63203;SDS011;49297;43.210;27.914;2023-08-24T07:08:32;11.70;;;10.60;;
63203;SDS011;49297;43.210;27.914;2023-08-24T07:10:58;10.60;;;9.70;;
63203;SDS011;49297;43.210;27.914;2023-08-24T07:13:24;13.17;;;12.10;;
63203;SDS011;49297;43.210;27.914;2023-08-24T07:15:50;12.38;;;11.27;;
63203;SDS011;49297;43.210;27.914;2023-08-24T07:18:16;10.80;;;9.98;;
63203;SDS011;49297;43.210;27.914;2023-08-24T07:20:42;10.32;;;9.52;;
63203;SDS011;49297;43.210;27.914;2023-08-24T07:23:08;11.10;;;10.20;;
63203;SDS011;49297;43.210;27.914;2023-08-24T07:25:33;11.05;;;10.07;;
63203;SDS011;49297;43.210;27.914;2023-08-24T07:27:59;21.50;;;19.60;;
63203;SDS011;49297;43.210;27.914;2023-08-24T07:30:26;12.80;;;11.70;;
63203;SDS011;49297;43.210;27.914;2023-08-24T07:32:53;10.32;;;9.32;;
63203;SDS011;49297;43.210;27.914;2023-08-24T07:35:19;9.85;;;8.98;;
63203;SDS011;49297;43.210;27.914;2023-08-24T07:37:46;10.77;;;9.68;;
63203;SDS011;49297;43.210;27.914;2023-08-24T07:40:14;11.30;;;10.50;;
63203;SDS011;49297;43.210;27.914;2023-08-24T07:42:43;9.15;;;8.45;;
63203;SDS011;49297;43.210;27.914;2023-08-24T07:45:13;11.50;;;10.55;;
63203;SDS011;49297;43.210;27.914;2023-08-24T07:47:39;11.05;;;10.13;;
63203;SDS011;49297;43.210;27.914;2023-08-24T07:50:07;10.30;;;9.55;;
63203;SDS011;49297;43.210;27.914;2023-08-24T07:52:34;12.43;;;11.23;;
63203;SDS011;49297;43.210;27.914;2023-08-24T07:55:00;10.63;;;9.77;;
63203;SDS011;49297;43.210;27.914;2023-08-24T07:57:29;12.07;;;10.98;;
63203;SDS011;49297;43.210;27.914;2023-08-24T07:59:55;11.23;;;10.33;;
63203;SDS011;49297;43.210;27.914;2023-08-24T08:02:20;10.68;;;9.57;;
63203;SDS011;49297;43.210;27.914;2023-08-24T08:04:46;10.30;;;9.53;;
63203;SDS011;49297;43.210;27.914;2023-08-24T08:07:12;10.93;;;10.03;;
63203;SDS011;49297;43.210;27.914;2023-08-24T08:09:38;10.60;;;9.90;;
63203;SDS011;49297;43.210;27.914;2023-08-24T08:12:04;10.93;;;9.83;;
63203;SDS011;49297;43.210;27.914;2023-08-24T08:14:30;10.75;;;9.73;;
63203;SDS011;49297;43.210;27.914;2023-08-24T08:16:56;10.03;;;9.23;;
63203;SDS011;49297;43.210;27.914;2023-08-24T08:19:22;11.05;;;10.05;;
63203;SDS011;49297;43.210;27.914;2023-08-24T08:21:50;11.43;;;10.63;;
63203;SDS011;49297;43.210;27.914;2023-08-24T08:24:16;10.65;;;9.75;;
63203;SDS011;49297;43.210;27.914;2023-08-24T08:26:42;11.48;;;10.50;;
63203;SDS011;49297;43.210;27.914;2023-08-24T08:29:08;10.73;;;9.83;;
63203;SDS011;49297;43.210;27.914;2023-08-24T08:31:33;10.57;;;9.77;;
63203;SDS011;49297;43.210;27.914;2023-08-24T08:33:59;10.45;;;9.48;;
63203;SDS011;49297;43.210;27.914;2023-08-24T08:36:26;14.30;;;8.63;;
63203;SDS011;49297;43.210;27.914;2023-08-24T08:38:52;8.82;;;7.82;;
63203;SDS011;49297;43.210;27.914;2023-08-24T08:41:18;9.45;;;8.57;;
63203;SDS011;49297;43.210;27.914;2023-08-24T08:43:47;9.57;;;8.65;;
63203;SDS011;49297;43.210;27.914;2023-08-24T08:46:14;9.27;;;8.48;;
63203;SDS011;49297;43.210;27.914;2023-08-24T08:48:41;11.63;;;10.52;;
63203;SDS011;49297;43.210;27.914;2023-08-24T08:51:10;10.75;;;9.25;;
63203;SDS011;49297;43.210;27.914;2023-08-24T08:53:38;8.98;;;8.13;;
63203;SDS011;49297;43.210;27.914;2023-08-24T08:56:03;8.13;;;7.43;;
63203;SDS011;49297;43.210;27.914;2023-08-24T08:58:34;7.78;;;7.07;;
63203;SDS011;49297;43.210;27.914;2023-08-24T09:01:04;8.40;;;7.60;;
63203;SDS011;49297;43.210;27.914;2023-08-24T09:03:31;7.85;;;7.07;;
63203;SDS011;49297;43.210;27.914;2023-08-24T09:05:58;7.68;;;6.43;;
63203;SDS011;49297;43.210;27.914;2023-08-24T09:08:26;8.10;;;7.30;;
63203;SDS011;49297;43.210;27.914;2023-08-24T09:10:53;6.53;;;5.82;;
63203;SDS011;49297;43.210;27.914;2023-08-24T09:13:20;7.05;;;6.43;;
63203;SDS011;49297;43.210;27.914;2023-08-24T09:15:46;7.25;;;6.40;;
63203;SDS011;49297;43.210;27.914;2023-08-24T09:18:12;6.97;;;6.32;;
63203;SDS011;49297;43.210;27.914;2023-08-24T09:20:38;7.23;;;6.47;;
63203;SDS011;49297;43.210;27.914;2023-08-24T09:23:04;7.83;;;7.13;;
63203;SDS011;49297;43.210;27.914;2023-08-24T09:25:29;8.18;;;7.38;;
63203;SDS011;49297;43.210;27.914;2023-08-24T09:27:56;8.57;;;7.78;;
63203;SDS011;49297;43.210;27.914;2023-08-24T09:30:23;8.18;;;7.47;;
63203;SDS011;49297;43.210;27.914;2023-08-24T09:32:53;8.60;;;7.77;;
63203;SDS011;49297;43.210;27.914;2023-08-24T09:35:19;9.40;;;8.50;;
63203;SDS011;49297;43.210;27.914;2023-08-24T09:37:50;9.88;;;9.07;;
63203;SDS011;49297;43.210;27.914;2023-08-24T09:40:15;8.90;;;8.20;;
63203;SDS011;49297;43.210;27.914;2023-08-24T09:42:41;9.53;;;8.67;;
63203;SDS011;49297;43.210;27.914;2023-08-24T09:45:08;10.47;;;8.13;;
63203;SDS011;49297;43.210;27.914;2023-08-24T09:47:37;12.02;;;9.70;;
63203;SDS011;49297;43.210;27.914;2023-08-24T09:50:04;9.38;;;8.68;;
63203;SDS011;49297;43.210;27.914;2023-08-24T09:52:31;11.10;;;10.18;;
63203;SDS011;49297;43.210;27.914;2023-08-24T09:55:02;10.10;;;9.15;;
63203;SDS011;49297;43.210;27.914;2023-08-24T09:57:39;10.20;;;9.40;;
63203;SDS011;49297;43.210;27.914;2023-08-24T10:00:09;10.73;;;9.60;;
63203;SDS011;49297;43.210;27.914;2023-08-24T10:02:36;11.20;;;10.07;;
63203;SDS011;49297;43.210;27.914;2023-08-24T10:05:11;9.95;;;8.90;;
63203;SDS011;49297;43.210;27.914;2023-08-24T10:07:42;9.70;;;9.00;;
63203;SDS011;49297;43.210;27.914;2023-08-24T10:10:10;11.90;;;10.80;;
63203;SDS011;49297;43.210;27.914;2023-08-24T10:12:40;10.55;;;9.65;;
63203;SDS011;49297;43.210;27.914;2023-08-24T10:15:09;11.35;;;10.32;;
63203;SDS011;49297;43.210;27.914;2023-08-24T10:17:37;10.93;;;10.13;;
63203;SDS011;49297;43.210;27.914;2023-08-24T10:20:04;11.10;;;10.00;;
63203;SDS011;49297;43.210;27.914;2023-08-24T10:22:35;10.83;;;9.77;;
63203;SDS011;49297;43.210;27.914;2023-08-24T10:25:02;11.10;;;10.17;;
63203;SDS011;49297;43.210;27.914;2023-08-24T10:27:30;10.20;;;9.40;;
63203;SDS011;49297;43.210;27.914;2023-08-24T10:29:56;10.77;;;9.73;;
63203;SDS011;49297;43.210;27.914;2023-08-24T10:32:24;10.60;;;9.65;;
63203;SDS011;49297;43.210;27.914;2023-08-24T10:34:52;12.17;;;11.07;;
63203;SDS011;49297;43.210;27.914;2023-08-24T10:37:22;9.38;;;8.60;;
63203;SDS011;49297;43.210;27.914;2023-08-24T10:39:51;11.50;;;9.50;;
63203;SDS011;49297;43.210;27.914;2023-08-24T10:42:16;10.27;;;9.23;;
63203;SDS011;49297;43.210;27.914;2023-08-24T10:44:45;10.00;;;9.05;;
63203;SDS011;49297;43.210;27.914;2023-08-24T10:52:32;10.17;;;9.17;;
63203;SDS011;49297;43.210;27.914;2023-08-24T10:55:01;9.98;;;8.85;;
63203;SDS011;49297;43.210;27.914;2023-08-24T10:57:38;8.50;;;7.72;;
63203;SDS011;49297;43.210;27.914;2023-08-24T11:02:46;9.10;;;8.38;;
63203;SDS011;49297;43.210;27.914;2023-08-24T11:05:16;9.93;;;9.02;;
63203;SDS011;49297;43.210;27.914;2023-08-24T11:10:22;9.57;;;8.68;;
63203;SDS011;49297;43.210;27.914;2023-08-24T11:15:29;9.00;;;8.32;;
63203;SDS011;49297;43.210;27.914;2023-08-24T11:20:47;8.30;;;7.60;;
63203;SDS011;49297;43.210;27.914;2023-08-24T11:23:19;9.35;;;8.45;;
63203;SDS011;49297;43.210;27.914;2023-08-24T11:25:46;8.73;;;8.02;;
63203;SDS011;49297;43.210;27.914;2023-08-24T11:28:19;10.13;;;9.13;;
63203;SDS011;49297;43.210;27.914;2023-08-24T11:30:45;9.75;;;8.75;;
63203;SDS011;49297;43.210;27.914;2023-08-24T11:33:12;8.80;;;8.00;;
63203;SDS011;49297;43.210;27.914;2023-08-24T11:35:40;9.38;;;8.50;;
63203;SDS011;49297;43.210;27.914;2023-08-24T11:38:09;13.43;;;9.13;;
63203;SDS011;49297;43.210;27.914;2023-08-24T11:40:37;8.77;;;8.07;;
63203;SDS011;49297;43.210;27.914;2023-08-24T11:43:04;9.23;;;8.43;;
63203;SDS011;49297;43.210;27.914;2023-08-24T11:45:34;8.77;;;8.07;;
63203;SDS011;49297;43.210;27.914;2023-08-24T11:48:02;9.43;;;8.68;;
63203;SDS011;49297;43.210;27.914;2023-08-24T11:50:30;9.25;;;7.70;;
63203;SDS011;49297;43.210;27.914;2023-08-24T11:52:56;8.75;;;8.10;;
63203;SDS011;49297;43.210;27.914;2023-08-24T11:55:22;11.60;;;9.23;;
63203;SDS011;49297;43.210;27.914;2023-08-24T11:57:49;8.13;;;7.43;;
63203;SDS011;49297;43.210;27.914;2023-08-24T12:00:16;12.82;;;9.20;;
63203;SDS011;49297;43.210;27.914;2023-08-24T12:02:44;8.55;;;7.80;;
63203;SDS011;49297;43.210;27.914;2023-08-24T12:05:23;8.13;;;7.43;;
63203;SDS011;49297;43.210;27.914;2023-08-24T12:07:53;8.97;;;8.27;;
63203;SDS011;49297;43.210;27.914;2023-08-24T12:10:20;9.35;;;8.65;;
63203;SDS011;49297;43.210;27.914;2023-08-24T12:12:47;8.80;;;8.10;;
63203;SDS011;49297;43.210;27.914;2023-08-24T12:15:17;8.27;;;7.57;;
63203;SDS011;49297;43.210;27.914;2023-08-24T12:17:46;9.30;;;8.50;;
63203;SDS011;49297;43.210;27.914;2023-08-24T12:20:20;9.43;;;8.63;;
63203;SDS011;49297;43.210;27.914;2023-08-24T12:22:51;8.38;;;7.75;;
63203;SDS011;49297;43.210;27.914;2023-08-24T12:25:24;9.68;;;8.95;;
63203;SDS011;49297;43.210;27.914;2023-08-24T12:30:45;9.07;;;8.27;;
63203;SDS011;49297;43.210;27.914;2023-08-24T12:33:25;10.18;;;9.27;;
63203;SDS011;49297;43.210;27.914;2023-08-24T12:35:52;9.35;;;8.63;;
63203;SDS011;49297;43.210;27.914;2023-08-24T12:38:20;9.48;;;8.73;;
63203;SDS011;49297;43.210;27.914;2023-08-24T12:40:46;9.18;;;8.48;;
63203;SDS011;49297;43.210;27.914;2023-08-24T12:43:13;9.50;;;8.80;;
63203;SDS011;49297;43.210;27.914;2023-08-24T12:45:39;9.77;;;8.60;;
63203;SDS011;49297;43.210;27.914;2023-08-24T12:48:05;11.48;;;9.82;;
63203;SDS011;49297;43.210;27.914;2023-08-24T12:50:32;10.82;;;9.82;;
63203;SDS011;49297;43.210;27.914;2023-08-24T12:52:59;10.00;;;9.10;;
63203;SDS011;49297;43.210;27.914;2023-08-24T12:55:28;10.80;;;9.27;;
63203;SDS011;49297;43.210;27.914;2023-08-24T12:57:56;9.90;;;9.10;;
63203;SDS011;49297;43.210;27.914;2023-08-24T13:00:22;10.65;;;9.85;;
63203;SDS011;49297;43.210;27.914;2023-08-24T13:02:48;10.48;;;9.65;;
63203;SDS011;49297;43.210;27.914;2023-08-24T13:05:16;10.10;;;9.37;;
63203;SDS011;49297;43.210;27.914;2023-08-24T13:07:42;9.82;;;8.88;;
63203;SDS011;49297;43.210;27.914;2023-08-24T13:10:08;10.15;;;9.25;;
63203;SDS011;49297;43.210;27.914;2023-08-24T13:12:35;10.73;;;9.60;;
63203;SDS011;49297;43.210;27.914;2023-08-24T13:15:01;11.43;;;10.25;;
63203;SDS011;49297;43.210;27.914;2023-08-24T13:17:32;10.07;;;9.20;;
63203;SDS011;49297;43.210;27.914;2023-08-24T13:19:58;12.98;;;9.70;;
63203;SDS011;49297;43.210;27.914;2023-08-24T13:22:23;11.30;;;9.20;;
63203;SDS011;49297;43.210;27.914;2023-08-24T13:24:49;10.48;;;9.55;;
63203;SDS011;49297;43.210;27.914;2023-08-24T13:27:15;9.48;;;8.75;;
63203;SDS011;49297;43.210;27.914;2023-08-24T13:29:40;10.90;;;10.00;;
63203;SDS011;49297;43.210;27.914;2023-08-24T13:32:07;9.25;;;8.52;;
63203;SDS011;49297;43.210;27.914;2023-08-24T13:34:33;9.50;;;8.80;;
63203;SDS011;49297;43.210;27.914;2023-08-24T13:36:59;9.87;;;8.87;;
63203;SDS011;49297;43.210;27.914;2023-08-24T13:39:25;9.35;;;8.55;;
63203;SDS011;49297;43.210;27.914;2023-08-24T13:41:53;9.77;;;8.98;;
63203;SDS011;49297;43.210;27.914;2023-08-24T13:44:19;10.35;;;9.45;;
63203;SDS011;49297;43.210;27.914;2023-08-24T13:46:45;10.15;;;9.35;;
63203;SDS011;49297;43.210;27.914;2023-08-24T13:49:14;9.15;;;8.35;;
63203;SDS011;49297;43.210;27.914;2023-08-24T13:51:39;11.43;;;10.27;;
63203;SDS011;49297;43.210;27.914;2023-08-24T13:54:16;10.13;;;9.13;;
63203;SDS011;49297;43.210;27.914;2023-08-24T13:56:44;13.00;;;9.35;;
63203;SDS011;49297;43.210;27.914;2023-08-24T13:59:11;11.07;;;10.18;;
63203;SDS011;49297;43.210;27.914;2023-08-24T14:01:37;10.25;;;9.45;;
63203;SDS011;49297;43.210;27.914;2023-08-24T14:04:04;8.95;;;8.07;;
63203;SDS011;49297;43.210;27.914;2023-08-24T14:06:30;10.27;;;9.18;;
63203;SDS011;49297;43.210;27.914;2023-08-24T14:08:57;10.68;;;9.63;;
63203;SDS011;49297;43.210;27.914;2023-08-24T14:11:23;9.73;;;8.93;;
63203;SDS011;49297;43.210;27.914;2023-08-24T14:13:49;10.13;;;9.33;;
63203;SDS011;49297;43.210;27.914;2023-08-24T14:16:15;10.27;;;9.40;;
63203;SDS011;49297;43.210;27.914;2023-08-24T14:18:42;11.63;;;10.50;;
63203;SDS011;49297;43.210;27.914;2023-08-24T14:21:08;10.80;;;9.82;;
63203;SDS011;49297;43.210;27.914;2023-08-24T14:23:34;10.88;;;9.80;;
63203;SDS011;49297;43.210;27.914;2023-08-24T14:26:00;10.37;;;9.47;;
63203;SDS011;49297;43.210;27.914;2023-08-24T14:28:25;11.10;;;9.63;;
63203;SDS011;49297;43.210;27.914;2023-08-24T14:31:22;10.32;;;9.48;;
63203;SDS011;49297;43.210;27.914;2023-08-24T14:33:49;10.77;;;9.68;;
63203;SDS011;49297;43.210;27.914;2023-08-24T14:36:16;10.50;;;9.63;;
63203;SDS011;49297;43.210;27.914;2023-08-24T14:38:42;13.43;;;9.32;;
63203;SDS011;49297;43.210;27.914;2023-08-24T14:41:09;11.13;;;10.13;;